Time;durP1;ratioP1;P1;durP2;ratioP2;P2;SDS_P1;SDS_P2;PMS_P1;PMS_P2;Temp;Humidity;BMP_temperature;BMP_pressure;BME280_temperature;BME280_humidity;BME280_pressure;Samples;Min_cycle;Max_cycle;Signal;HPM_P1;HPM_P2
2022/09/05 00:00:19;;;;;;;2.63;1.77;;;;;;;;;;7390980;19;20326;-73
2022/09/05 00:03:06;;;;;;;3.40;2.10;;;;;;;;;;7392776;19;20050;-73
2022/09/05 00:05:44;;;;;;;2.45;1.80;;;;;;;;;;7391957;19;20002;-75
2022/09/05 00:08:53;;;;;;;4.07;2.00;;;;;;;;;;7391534;19;19999;-72
2022/09/05 00:11:41;;;;;;;4.43;2.42;;;;;;;;;;7388142;19;20128;-74
2022/09/05 00:14:43;;;;;;;3.40;2.25;;;;;;;;;;7387820;19;20118;-72
2022/09/05 00:17:30;;;;;;;3.20;1.80;;;;;;;;;;7389729;19;20078;-73
2022/09/05 00:20:15;;;;;;;4.97;2.15;;;;;;;;;;7389987;19;19999;-73
2022/09/05 00:22:57;;;;;;;2.45;1.90;;;;;;;;;;7391715;19;20006;-74
2022/09/05 00:25:44;;;;;;;3.50;2.30;;;;;;;;;;7391123;19;19999;-73
2022/09/05 00:28:34;;;;;;;6.35;2.17;;;;;;;;;;7389187;19;20359;-73
2022/09/05 00:31:21;;;;;;;4.70;2.23;;;;;;;;;;7391506;19;20015;-73
2022/09/05 00:34:14;;;;;;;4.05;2.33;;;;;;;;;;7390777;19;20332;-73
2022/09/05 00:36:44;;;;;;;4.05;2.08;;;;;;;;;;7391326;19;20002;-71
2022/09/05 00:39:16;;;;;;;3.25;2.00;;;;;;;;;;7387335;19;19998;-73
2022/09/05 00:41:44;;;;;;;4.85;2.15;;;;;;;;;;7391503;19;20006;-74
2022/09/05 00:44:13;;;;;;;2.95;2.08;;;;;;;;;;7390914;19;20019;-74
2022/09/05 00:46:46;;;;;;;3.97;2.20;;;;;;;;;;7390982;19;20325;-74
2022/09/05 00:49:26;;;;;;;3.53;2.13;;;;;;;;;;7389604;19;20057;-74
2022/09/05 00:52:08;;;;;;;3.90;2.17;;;;;;;;;;7391102;19;20002;-73
2022/09/05 00:54:47;;;;;;;3.17;2.13;;;;;;;;;;7389025;19;20005;-73
2022/09/05 00:57:41;;;;;;;1.98;1.50;;;;;;;;;;7390931;19;19991;-73
2022/09/05 01:00:12;;;;;;;3.95;2.42;;;;;;;;;;7389024;19;20543;-73
2022/09/05 01:02:44;;;;;;;3.97;1.95;;;;;;;;;;7388859;19;19998;-73
2022/09/05 01:05:35;;;;;;;2.83;2.00;;;;;;;;;;7389624;19;20002;-74
2022/09/05 01:08:29;;;;;;;4.88;2.42;;;;;;;;;;7388147;19;20019;-73
2022/09/05 01:10:57;;;;;;;3.40;2.20;;;;;;;;;;7390852;19;20002;-73
2022/09/05 01:13:46;;;;;;;3.22;1.90;;;;;;;;;;7388254;19;20353;-73
2022/09/05 01:16:14;;;;;;;3.53;2.47;;;;;;;;;;7390105;19;19994;-74
2022/09/05 01:18:55;;;;;;;3.63;1.95;;;;;;;;;;7388660;19;20003;-74
2022/09/05 01:21:58;;;;;;;3.33;2.20;;;;;;;;;;7390448;19;20037;-74
2022/09/05 01:24:57;;;;;;;4.07;1.92;;;;;;;;;;7389215;19;20472;-74
2022/09/05 01:27:45;;;;;;;3.72;2.78;;;;;;;;;;7390621;19;20470;-74
2022/09/05 01:30:13;;;;;;;4.13;2.80;;;;;;;;;;7388033;19;20430;-73
2022/09/05 01:33:05;;;;;;;5.20;2.50;;;;;;;;;;7387937;19;20033;-73
2022/09/05 01:35:48;;;;;;;3.50;2.38;;;;;;;;;;7389657;19;20599;-73
2022/09/05 01:38:35;;;;;;;4.30;2.70;;;;;;;;;;7385258;19;19998;-73
2022/09/05 01:41:25;;;;;;;3.58;2.25;;;;;;;;;;7389446;19;20562;-74
2022/09/05 01:43:57;;;;;;;3.75;2.40;;;;;;;;;;7390980;19;20058;-73
2022/09/05 01:46:34;;;;;;;3.40;2.10;;;;;;;;;;7389980;19;20573;-73
2022/09/05 01:49:12;;;;;;;4.18;2.30;;;;;;;;;;7388974;19;20287;-73
2022/09/05 01:51:59;;;;;;;5.78;2.20;;;;;;;;;;7389954;19;19994;-73
2022/09/05 01:54:56;;;;;;;5.00;2.35;;;;;;;;;;7388814;19;19995;-74
2022/09/05 01:57:59;;;;;;;9.07;3.35;;;;;;;;;;7387467;19;20002;-73
2022/09/05 02:00:35;;;;;;;10.48;3.22;;;;;;;;;;7384972;19;20040;-73
2022/09/05 02:03:07;;;;;;;6.03;2.13;;;;;;;;;;7388733;19;20001;-73
2022/09/05 02:05:40;;;;;;;5.38;2.70;;;;;;;;;;7386679;19;20002;-73
2022/09/05 02:08:37;;;;;;;5.13;2.25;;;;;;;;;;7388046;19;20005;-74
2022/09/05 02:11:08;;;;;;;4.70;2.42;;;;;;;;;;7388429;19;20009;-73
2022/09/05 02:13:33;;;;;;;6.13;2.90;;;;;;;;;;7386300;19;20007;-74
2022/09/05 02:16:01;;;;;;;4.40;2.38;;;;;;;;;;7388487;19;20479;-73
2022/09/05 02:18:53;;;;;;;7.88;2.22;;;;;;;;;;7385935;19;20013;-73
2022/09/05 02:21:37;;;;;;;4.57;2.45;;;;;;;;;;7387034;19;20468;-72
2022/09/05 02:24:02;;;;;;;4.47;2.13;;;;;;;;;;7388157;19;20009;-73
2022/09/05 02:26:38;;;;;;;9.07;2.42;;;;;;;;;;7386329;19;19999;-73
2022/09/05 02:29:19;;;;;;;3.35;1.85;;;;;;;;;;7386581;19;20006;-73
2022/09/05 02:31:50;;;;;;;;;;;;;;;;;;7389358;19;20340;-73
2022/09/05 02:34:24;;;;;;;2.65;1.80;;;;;;;;;;7385527;19;19922;-73
2022/09/05 02:37:02;;;;;;;4.40;2.50;;;;;;;;;;7387783;19;20003;-72
2022/09/05 02:40:02;;;;;;;4.13;2.45;;;;;;;;;;7386566;19;20074;-73
2022/09/05 02:42:34;;;;;;;3.22;1.95;;;;;;;;;;7386025;19;19998;-73
2022/09/05 02:45:06;;;;;;;3.22;2.13;;;;;;;;;;7387058;19;19998;-73
2022/09/05 02:47:47;;;;;;;3.25;1.95;;;;;;;;;;7385641;19;19999;-73
2022/09/05 02:50:31;;;;;;;5.30;2.38;;;;;;;;;;7388811;19;19991;-73
2022/09/05 02:52:57;;;;;;;3.00;1.80;;;;;;;;;;7393170;19;20350;-73
2022/09/05 02:55:44;;;;;;;3.53;2.17;;;;;;;;;;7394186;19;20091;-74
2022/09/05 02:58:28;;;;;;;3.13;1.88;;;;;;;;;;7393855;19;19999;-73
2022/09/05 03:01:21;;;;;;;2.75;1.90;;;;;;;;;;7394689;19;20015;-73
2022/09/05 03:04:20;;;;;;;3.72;1.65;;;;;;;;;;7391975;19;20058;-73
2022/09/05 03:06:58;;;;;;;2.90;1.88;;;;;;;;;;7394381;19;20483;-73
2022/09/05 03:10:11;;;;;;;4.57;2.00;;;;;;;;;;7391855;19;20002;-73
2022/09/05 03:12:45;;;;;;;3.15;2.10;;;;;;;;;;7391103;19;19994;-73
2022/09/05 03:15:38;;;;;;;2.60;1.85;;;;;;;;;;7393481;19;19998;-73
2022/09/05 03:18:48;;;;;;;2.72;1.75;;;;;;;;;;7393037;19;19998;-72
2022/09/05 03:21:38;;;;;;;3.50;2.40;;;;;;;;;;7390036;19;20002;-73
2022/09/05 03:24:22;;;;;;;5.87;1.77;;;;;;;;;;7389240;19;20034;-73
2022/09/05 03:27:15;;;;;;;4.03;2.28;;;;;;;;;;7392331;19;20434;-74
2022/09/05 03:30:05;;;;;;;3.75;2.10;;;;;;;;;;7389327;19;20840;-73
2022/09/05 03:33:13;;;;;;;2.90;1.93;;;;;;;;;;7391959;19;20460;-73
2022/09/05 03:36:12;;;;;;;4.00;2.38;;;;;;;;;;7391521;19;20259;-73
2022/09/05 03:38:58;;;;;;;3.38;1.73;;;;;;;;;;7391970;19;20002;-73
2022/09/05 03:41:38;;;;;;;4.10;2.17;;;;;;;;;;7395501;19;20011;-73
2022/09/05 03:44:39;;;;;;;2.85;2.13;;;;;;;;;;7393434;19;20484;-73
2022/09/05 03:47:22;;;;;;;4.65;2.10;;;;;;;;;;7393778;19;20014;-74
2022/09/05 03:50:12;;;;;;;4.28;2.50;;;;;;;;;;7392418;19;20010;-72
2022/09/05 03:52:56;;;;;;;4.35;2.42;;;;;;;;;;7393633;19;20794;-73
2022/09/05 03:55:39;;;;;;;3.38;2.00;;;;;;;;;;7393029;19;19999;-73
2022/09/05 03:58:29;;;;;;;4.13;2.22;;;;;;;;;;7392798;19;19999;-74
2022/09/05 04:01:03;;;;;;;5.82;2.75;;;;;;;;;;7393479;19;20362;-74
2022/09/05 04:03:41;;;;;;;4.60;2.55;;;;;;;;;;7390560;19;19994;-72
2022/09/05 04:06:16;;;;;;;3.45;2.13;;;;;;;;;;7392872;19;20027;-73
2022/09/05 04:08:47;;;;;;;3.55;2.20;;;;;;;;;;7392545;19;20436;-73
2022/09/05 04:11:28;;;;;;;3.58;2.45;;;;;;;;;;7388377;19;19991;-73
2022/09/05 04:13:59;;;;;;;4.10;2.65;;;;;;;;;;7388762;19;20027;-73
2022/09/05 04:16:31;;;;;;;5.35;2.72;;;;;;;;;;7388888;19;20020;-74
2022/09/05 04:19:20;;;;;;;3.28;2.08;;;;;;;;;;7385841;19;20084;-74
2022/09/05 04:22:10;;;;;;;4.80;2.78;;;;;;;;;;7392019;19;19998;-73
2022/09/05 04:25:11;;;;;;;3.50;2.33;;;;;;;;;;7391069;19;20488;-74
2022/09/05 04:27:50;;;;;;;2.72;2.17;;;;;;;;;;7396146;19;20276;-74
2022/09/05 04:30:27;;;;;;;4.80;2.95;;;;;;;;;;7395860;19;20020;-73
2022/09/05 04:32:58;;;;;;;4.72;2.38;;;;;;;;;;7396307;19;20006;-73
2022/09/05 04:35:29;;;;;;;;;;;;;;;;;;7395676;19;20005;-75
2022/09/05 04:38:16;;;;;;;3.22;1.98;;;;;;;;;;7395351;19;19928;-74
2022/09/05 04:40:46;;;;;;;3.22;1.95;;;;;;;;;;7393765;19;19998;-74
2022/09/05 04:43:34;;;;;;;5.75;2.53;;;;;;;;;;7391324;19;19998;-73
2022/09/05 04:46:03;;;;;;;3.40;2.35;;;;;;;;;;7390855;19;20066;-74
2022/09/05 04:48:45;;;;;;;4.68;2.25;;;;;;;;;;7390367;19;20002;-74
2022/09/05 04:51:48;;;;;;;3.47;1.95;;;;;;;;;;7388730;19;20031;-73
2022/09/05 04:54:32;;;;;;;3.78;2.38;;;;;;;;;;7390647;19;20452;-74
2022/09/05 04:57:11;;;;;;;4.72;2.60;;;;;;;;;;7390815;19;20009;-73
2022/09/05 04:59:47;;;;;;;3.40;2.47;;;;;;;;;;7388628;19;20633;-74
2022/09/05 05:02:25;;;;;;;4.03;2.40;;;;;;;;;;7390934;19;20742;-74
2022/09/05 05:05:00;;;;;;;5.35;2.60;;;;;;;;;;7388668;19;19999;-74
2022/09/05 05:07:37;;;;;;;4.03;2.47;;;;;;;;;;7390222;19;20400;-74
2022/09/05 05:10:07;;;;;;;3.78;2.22;;;;;;;;;;7390347;19;20030;-74
2022/09/05 05:13:11;;;;;;;3.47;2.40;;;;;;;;;;7389912;19;20010;-75
2022/09/05 05:15:46;;;;;;;3.40;2.25;;;;;;;;;;7387043;19;20010;-74
2022/09/05 05:18:28;;;;;;;4.50;2.83;;;;;;;;;;7389256;19;19998;-74
2022/09/05 05:21:09;;;;;;;6.50;2.78;;;;;;;;;;7389144;19;19991;-74
2022/09/05 05:23:42;;;;;;;3.35;2.45;;;;;;;;;;7389066;19;20483;-74
2022/09/05 05:26:12;;;;;;;5.15;2.95;;;;;;;;;;7388151;19;19994;-74
2022/09/05 05:29:15;;;;;;;3.75;2.10;;;;;;;;;;7388118;19;20027;-74
2022/09/05 05:31:50;;;;;;;6.25;2.60;;;;;;;;;;7386864;19;20066;-74
2022/09/05 05:34:26;;;;;;;4.47;2.60;;;;;;;;;;7390232;19;20364;-74
2022/09/05 05:37:06;;;;;;;6.18;2.80;;;;;;;;;;7384169;19;20036;-72
2022/09/05 05:39:36;;;;;;;3.95;2.28;;;;;;;;;;7389750;19;20002;-73
2022/09/05 05:42:02;;;;;;;6.90;3.23;;;;;;;;;;7391761;19;20019;-72
2022/09/05 05:44:37;;;;;;;5.38;2.63;;;;;;;;;;7390220;19;20024;-72
2022/09/05 05:47:19;;;;;;;5.53;2.65;;;;;;;;;;7385717;19;20031;-73
2022/09/05 05:50:02;;;;;;;4.13;2.70;;;;;;;;;;7386699;19;20061;-73
2022/09/05 05:52:49;;;;;;;6.47;2.40;;;;;;;;;;7383254;19;20448;-73
2022/09/05 05:55:34;;;;;;;4.35;2.50;;;;;;;;;;7391874;19;20388;-73
2022/09/05 05:58:31;;;;;;;4.50;2.38;;;;;;;;;;7387973;19;20485;-71
2022/09/05 06:01:25;;;;;;;4.50;2.28;;;;;;;;;;7390497;19;20016;-72
2022/09/05 06:04:03;;;;;;;3.90;2.40;;;;;;;;;;7388053;19;20478;-73
2022/09/05 06:06:37;;;;;;;3.47;2.13;;;;;;;;;;7391169;19;20414;-74
2022/09/05 06:09:02;;;;;;;3.63;2.20;;;;;;;;;;7391277;19;20019;-72
2022/09/05 06:11:52;;;;;;;2.45;1.90;;;;;;;;;;7391991;19;20002;-72
2022/09/05 06:14:50;;;;;;;3.33;2.10;;;;;;;;;;7389957;19;20021;-73
2022/09/05 06:17:32;;;;;;;3.33;2.13;;;;;;;;;;7392467;19;20039;-72
2022/09/05 06:20:10;;;;;;;3.97;2.00;;;;;;;;;;7386998;19;20009;-73
2022/09/05 06:22:53;;;;;;;4.95;2.03;;;;;;;;;;7390559;19;20005;-72
2022/09/05 06:25:43;;;;;;;3.47;2.20;;;;;;;;;;7390114;19;20504;-73
2022/09/05 06:28:14;;;;;;;5.40;2.10;;;;;;;;;;7389226;19;20006;-74
2022/09/05 06:30:48;;;;;;;4.18;2.20;;;;;;;;;;7390652;19;20374;-72
2022/09/05 06:33:49;;;;;;;2.88;2.08;;;;;;;;;;7390033;19;19999;-73
2022/09/05 06:36:17;;;;;;;;;;;;;;;;;;7387336;19;20476;-74
2022/09/05 06:39:12;;;;;;;5.90;2.28;;;;;;;;;;7388910;19;20451;-73
2022/09/05 06:41:55;;;;;;;6.38;2.35;;;;;;;;;;7390832;19;20582;-73
2022/09/05 06:44:42;;;;;;;4.65;2.50;;;;;;;;;;7389056;19;20608;-72
2022/09/05 06:47:15;;;;;;;11.98;2.67;;;;;;;;;;7386956;19;20364;-73
2022/09/05 06:50:04;;;;;;;7.22;2.65;;;;;;;;;;7388041;19;19999;-73
2022/09/05 06:52:57;;;;;;;5.13;2.28;;;;;;;;;;7388285;19;20578;-74
2022/09/05 06:55:39;;;;;;;5.93;2.17;;;;;;;;;;7390030;19;20007;-73
2022/09/05 06:58:13;;;;;;;7.63;2.55;;;;;;;;;;7387965;19;20094;-74
2022/09/05 07:00:47;;;;;;;4.95;2.30;;;;;;;;;;7387148;19;20003;-74
2022/09/05 07:03:41;;;;;;;3.72;2.08;;;;;;;;;;7389995;19;20002;-73
2022/09/05 07:06:09;;;;;;;3.60;2.28;;;;;;;;;;7387843;19;20005;-75
2022/09/05 07:08:52;;;;;;;3.25;2.00;;;;;;;;;;7387876;19;20002;-74
2022/09/05 07:11:39;;;;;;;4.40;2.20;;;;;;;;;;7389613;19;20002;-73
2022/09/05 07:14:11;;;;;;;2.90;1.80;;;;;;;;;;7386730;19;19999;-74
2022/09/05 07:16:46;;;;;;;2.58;1.63;;;;;;;;;;7389408;19;20013;-73
2022/09/05 07:19:26;;;;;;;3.30;2.08;;;;;;;;;;7388731;19;20374;-73
2022/09/05 07:22:14;;;;;;;3.05;2.00;;;;;;;;;;7387971;19;20024;-73
2022/09/05 07:24:44;;;;;;;3.55;1.90;;;;;;;;;;7389245;19;20002;-73
2022/09/05 07:27:12;;;;;;;2.45;1.70;;;;;;;;;;7388491;19;20108;-73
2022/09/05 07:29:46;;;;;;;2.20;1.63;;;;;;;;;;7388860;19;19994;-73
2022/09/05 07:32:17;;;;;;;6.85;1.52;;;;;;;;;;7388081;19;20007;-73
2022/09/05 07:34:45;;;;;;;1.83;1.67;;;;;;;;;;7389681;19;20002;-73
2022/09/05 07:37:21;;;;;;;2.15;1.40;;;;;;;;;;7392033;19;20015;-74
2022/09/05 07:39:55;;;;;;;2.05;1.52;;;;;;;;;;7390653;19;20006;-74
2022/09/05 07:42:36;;;;;;;2.13;1.63;;;;;;;;;;7396497;19;20033;-72
2022/09/05 07:45:09;;;;;;;1.83;1.40;;;;;;;;;;7394917;19;20344;-74
2022/09/05 07:47:53;;;;;;;3.67;1.50;;;;;;;;;;7397643;19;20006;-75
2022/09/05 07:50:20;;;;;;;2.45;1.60;;;;;;;;;;7395357;19;20024;-73
2022/09/05 07:52:48;;;;;;;2.28;1.73;;;;;;;;;;7396826;19;20567;-73
2022/09/05 07:55:35;;;;;;;2.78;1.70;;;;;;;;;;7396575;19;19995;-73
2022/09/05 07:58:06;;;;;;;2.45;1.60;;;;;;;;;;7392934;19;20006;-73
2022/09/05 08:00:42;;;;;;;2.00;1.60;;;;;;;;;;7393059;19;20019;-73
2022/09/05 08:03:13;;;;;;;2.35;1.63;;;;;;;;;;7394895;19;20003;-73
2022/09/05 08:05:48;;;;;;;2.53;1.50;;;;;;;;;;7397408;19;20002;-72
2022/09/05 08:08:26;;;;;;;1.42;1.27;;;;;;;;;;7394163;19;20073;-73
2022/09/05 08:10:56;;;;;;;3.10;1.67;;;;;;;;;;7393856;19;20028;-72
2022/09/05 08:13:47;;;;;;;1.63;1.30;;;;;;;;;;7396465;19;20356;-71
2022/09/05 08:16:16;;;;;;;2.30;1.50;;;;;;;;;;7394895;19;20027;-71
2022/09/05 08:19:09;;;;;;;2.40;1.67;;;;;;;;;;7394139;19;20019;-72
2022/09/05 08:21:48;;;;;;;2.25;1.45;;;;;;;;;;7394743;19;20452;-72
2022/09/05 08:24:20;;;;;;;2.03;1.38;;;;;;;;;;7393299;19;20487;-73
2022/09/05 08:27:01;;;;;;;1.23;1.13;;;;;;;;;;7393434;19;20002;-73
2022/09/05 08:29:42;;;;;;;1.40;1.30;;;;;;;;;;7394286;19;20414;-73
2022/09/05 08:32:14;;;;;;;3.38;1.70;;;;;;;;;;7392036;19;20358;-72
2022/09/05 08:35:00;;;;;;;2.10;1.50;;;;;;;;;;7393478;19;20082;-72
2022/09/05 08:37:26;;;;;;;1.88;1.20;;;;;;;;;;7395218;19;20005;-73
2022/09/05 08:39:57;;;;;;;3.17;1.35;;;;;;;;;;7393299;19;20002;-72
2022/09/05 08:42:38;;;;;;;2.03;1.35;;;;;;;;;;7392722;19;20489;-72
2022/09/05 08:45:18;;;;;;;2.30;1.60;;;;;;;;;;7392046;19;20011;-72
2022/09/05 08:48:01;;;;;;;1.42;1.30;;;;;;;;;;7392851;19;20023;-73
2022/09/05 08:50:47;;;;;;;1.40;1.30;;;;;;;;;;7393117;19;20366;-72
2022/09/05 08:53:50;;;;;;;1.40;1.30;;;;;;;;;;7394608;19;20363;-72
2022/09/05 08:56:34;;;;;;;2.78;1.30;;;;;;;;;;7393762;19;20010;-73
2022/09/05 08:59:26;;;;;;;2.03;1.25;;;;;;;;;;7393070;19;20515;-72
2022/09/05 09:02:12;;;;;;;1.90;1.48;;;;;;;;;;7391939;19;20010;-72
2022/09/05 09:04:49;;;;;;;2.25;1.40;;;;;;;;;;7392925;19;20450;-73
2022/09/05 09:07:23;;;;;;;1.52;1.20;;;;;;;;;;7394312;19;19999;-73
2022/09/05 09:10:19;;;;;;;1.40;1.30;;;;;;;;;;7389291;19;20002;-72
2022/09/05 09:13:21;;;;;;;1.45;1.30;;;;;;;;;;7394150;19;20024;-73
2022/09/05 09:16:05;;;;;;;1.83;1.30;;;;;;;;;;7389391;19;20006;-73
2022/09/05 09:19:02;;;;;;;1.63;1.40;;;;;;;;;;7391297;19;20006;-72
2022/09/05 09:21:48;;;;;;;1.73;1.30;;;;;;;;;;7391312;19;19999;-72
2022/09/05 09:24:23;;;;;;;2.83;1.35;;;;;;;;;;7390591;19;20006;-73
2022/09/05 09:26:59;;;;;;;1.45;1.23;;;;;;;;;;7393173;19;20372;-72
2022/09/05 09:29:25;;;;;;;1.63;1.30;;;;;;;;;;7390797;19;20006;-73
2022/09/05 09:32:10;;;;;;;1.73;1.33;;;;;;;;;;7390657;19;20028;-73
2022/09/05 09:34:43;;;;;;;1.60;1.40;;;;;;;;;;7391951;19;20010;-72
2022/09/05 09:37:14;;;;;;;1.35;1.25;;;;;;;;;;7391539;19;20034;-73
2022/09/05 09:39:57;;;;;;;1.60;1.23;;;;;;;;;;7390376;19;20074;-73
2022/09/05 09:42:46;;;;;;;2.35;1.30;;;;;;;;;;7390173;19;20003;-72
2022/09/05 09:45:21;;;;;;;2.13;1.23;;;;;;;;;;7391931;19;19999;-73
2022/09/05 09:48:08;;;;;;;1.52;1.20;;;;;;;;;;7392313;19;20074;-73
2022/09/05 09:50:57;;;;;;;2.25;1.30;;;;;;;;;;7391876;19;20017;-73
2022/09/05 09:53:41;;;;;;;1.40;1.30;;;;;;;;;;7390747;19;20002;-72
2022/09/05 09:56:22;;;;;;;1.48;1.20;;;;;;;;;;7392757;19;20010;-73
2022/09/05 09:59:12;;;;;;;1.83;1.27;;;;;;;;;;7390779;19;20215;-73
2022/09/05 10:01:53;;;;;;;;;;;;;;;;;;7392876;19;20001;-72
2022/09/05 10:04:24;;;;;;;1.25;1.15;;;;;;;;;;7390312;19;20296;-75
2022/09/05 10:07:16;;;;;;;2.45;1.58;;;;;;;;;;7392119;19;20009;-73
2022/09/05 10:10:03;;;;;;;1.38;1.20;;;;;;;;;;7389400;19;20013;-72
2022/09/05 10:12:50;;;;;;;1.20;1.10;;;;;;;;;;7385881;19;20329;-73
2022/09/05 10:15:29;;;;;;;1.30;1.20;;;;;;;;;;7390362;19;20019;-72
2022/09/05 10:18:22;;;;;;;1.38;1.27;;;;;;;;;;7387908;19;20019;-73
2022/09/05 10:21:17;;;;;;;2.17;1.30;;;;;;;;;;7389724;19;20002;-72
2022/09/05 10:24:06;;;;;;;1.23;1.13;;;;;;;;;;7387864;19;20031;-72
2022/09/05 10:27:09;;;;;;;1.98;1.30;;;;;;;;;;7390431;19;20026;-72
2022/09/05 10:29:45;;;;;;;2.08;1.15;;;;;;;;;;7388972;19;20382;-72
2022/09/05 10:32:29;;;;;;;2.20;1.30;;;;;;;;;;7389116;19;19998;-73
2022/09/05 10:35:00;;;;;;;2.75;1.10;;;;;;;;;;7390314;19;20005;-73
2022/09/05 10:37:40;;;;;;;1.30;1.20;;;;;;;;;;7389742;19;20340;-73
2022/09/05 10:40:07;;;;;;;;;;;;;;;;;;7388598;19;20066;-73
2022/09/05 10:42:49;;;;;;;1.15;1.13;;;;;;;;;;7391135;19;19915;-73
2022/09/05 10:45:22;;;;;;;1.50;1.30;;;;;;;;;;7388538;19;20516;-73
2022/09/05 10:48:00;;;;;;;1.90;1.27;;;;;;;;;;7385903;19;20014;-73
2022/09/05 10:50:27;;;;;;;1.13;1.05;;;;;;;;;;7388551;19;20014;-73
2022/09/05 10:53:08;;;;;;;1.40;1.10;;;;;;;;;;7391744;19;20031;-73
2022/09/05 10:55:39;;;;;;;1.95;1.33;;;;;;;;;;7390748;19;20021;-73
2022/09/05 10:58:26;;;;;;;3.17;1.40;;;;;;;;;;7390070;19;20027;-73
2022/09/05 11:01:11;;;;;;;1.75;1.40;;;;;;;;;;7388173;19;20096;-73
2022/09/05 11:04:14;;;;;;;1.33;1.15;;;;;;;;;;7390727;19;21407;-73
2022/09/05 11:06:41;;;;;;;2.13;1.20;;;;;;;;;;7387587;19;20011;-73
2022/09/05 11:09:25;;;;;;;2.25;1.40;;;;;;;;;;7388834;19;20013;-74
2022/09/05 11:12:18;;;;;;;1.65;1.30;;;;;;;;;;7390378;19;20084;-74
2022/09/05 11:14:56;;;;;;;1.00;1.00;;;;;;;;;;7394432;19;20007;-74
2022/09/05 11:17:45;;;;;;;1.13;1.13;;;;;;;;;;7396541;19;20001;-74
2022/09/05 11:20:16;;;;;;;1.17;1.10;;;;;;;;;;7394665;19;20010;-73
2022/09/05 11:22:46;;;;;;;1.55;1.27;;;;;;;;;;7395535;19;20522;-73
2022/09/05 11:25:21;;;;;;;;;;;;;;;;;;7397503;19;20019;-73
2022/09/05 11:27:51;;;;;;;1.30;1.20;;;;;;;;;;7394650;19;19939;-74
2022/09/05 11:30:17;;;;;;;;;;;;;;;;;;7396914;19;20522;-73
2022/09/05 11:33:09;;;;;;;1.25;1.15;;;;;;;;;;7395913;19;20337;-72
2022/09/05 11:36:00;;;;;;;1.27;1.10;;;;;;;;;;7397547;19;20003;-73
2022/09/05 11:38:47;;;;;;;1.20;1.08;;;;;;;;;;7394205;19;20123;-72
2022/09/05 11:41:13;;;;;;;1.10;1.00;;;;;;;;;;7395561;19;20006;-73
2022/09/05 11:43:44;;;;;;;1.10;1.10;;;;;;;;;;7394870;19;19995;-72
2022/09/05 11:46:38;;;;;;;1.08;1.00;;;;;;;;;;7392524;19;19998;-73
2022/09/05 11:49:37;;;;;;;1.30;1.10;;;;;;;;;;7390792;19;20011;-73
2022/09/05 11:52:20;;;;;;;1.20;1.10;;;;;;;;;;7394594;19;20377;-73
2022/09/05 11:54:54;;;;;;;1.45;1.20;;;;;;;;;;7395793;19;20037;-73
2022/09/05 11:57:30;;;;;;;1.38;1.13;;;;;;;;;;7397535;19;20702;-73
2022/09/05 12:00:14;;;;;;;3.00;1.55;;;;;;;;;;7396020;19;20001;-73
2022/09/05 12:03:14;;;;;;;2.05;1.30;;;;;;;;;;7395694;19;19994;-73
2022/09/05 12:06:10;;;;;;;1.38;1.23;;;;;;;;;;7397181;19;20011;-74
2022/09/05 12:09:02;;;;;;;1.33;1.23;;;;;;;;;;7391668;19;20161;-73
2022/09/05 12:11:33;;;;;;;1.02;1.00;;;;;;;;;;7397605;19;20065;-73
2022/09/05 12:14:16;;;;;;;1.30;1.20;;;;;;;;;;7393791;19;20025;-73
2022/09/05 12:16:52;;;;;;;1.50;1.27;;;;;;;;;;7395628;19;20006;-73
2022/09/05 12:19:31;;;;;;;1.30;1.10;;;;;;;;;;7394793;19;20393;-73
2022/09/05 12:22:25;;;;;;;1.77;1.13;;;;;;;;;;7393734;19;20376;-72
2022/09/05 12:25:19;;;;;;;1.10;1.00;;;;;;;;;;7396139;19;20399;-73
2022/09/05 12:27:50;;;;;;;1.50;1.20;;;;;;;;;;7390286;19;20345;-73
2022/09/05 12:30:30;;;;;;;2.00;1.00;;;;;;;;;;7395356;19;19999;-72
2022/09/05 12:33:10;;;;;;;1.38;1.27;;;;;;;;;;7393823;19;20337;-73
2022/09/05 12:36:02;;;;;;;1.27;1.17;;;;;;;;;;7396758;19;20022;-73
2022/09/05 12:38:49;;;;;;;1.20;1.10;;;;;;;;;;7391653;19;20313;-73
2022/09/05 12:41:39;;;;;;;1.23;1.05;;;;;;;;;;7392232;19;20002;-73
2022/09/05 12:44:20;;;;;;;1.20;1.10;;;;;;;;;;7393195;19;20018;-74
2022/09/05 12:46:55;;;;;;;1.25;1.15;;;;;;;;;;7394829;19;20009;-74
2022/09/05 12:49:46;;;;;;;1.38;1.20;;;;;;;;;;7392225;19;20002;-73
2022/09/05 12:52:19;;;;;;;1.15;1.05;;;;;;;;;;7392514;19;20007;-73
2022/09/05 12:54:53;;;;;;;1.30;1.20;;;;;;;;;;7393264;19;20106;-72
2022/09/05 12:57:30;;;;;;;1.35;1.23;;;;;;;;;;7394899;19;20065;-73
2022/09/05 13:00:00;;;;;;;1.48;1.05;;;;;;;;;;7394037;19;20491;-73
2022/09/05 13:02:30;;;;;;;1.30;1.20;;;;;;;;;;7393634;19;20010;-73
2022/09/05 13:05:02;;;;;;;3.50;1.40;;;;;;;;;;7393354;19;20468;-73
2022/09/05 13:07:37;;;;;;;1.00;1.00;;;;;;;;;;7395164;19;20006;-73
2022/09/05 13:10:27;;;;;;;1.90;1.10;;;;;;;;;;7390619;19;20002;-73
2022/09/05 13:12:56;;;;;;;1.40;1.20;;;;;;;;;;7392546;19;20002;-73
2022/09/05 13:15:25;;;;;;;2.88;1.05;;;;;;;;;;7393787;19;20114;-73
2022/09/05 13:18:03;;;;;;;1.13;1.10;;;;;;;;;;7391651;19;20006;-73
2022/09/05 13:20:33;;;;;;;1.17;1.00;;;;;;;;;;7391416;19;20073;-73
2022/09/05 13:23:16;;;;;;;1.30;1.02;;;;;;;;;;7393219;19;20003;-74
2022/09/05 13:25:44;;;;;;;3.28;1.20;;;;;;;;;;7390554;19;20527;-74
2022/09/05 13:28:16;;;;;;;1.48;1.20;;;;;;;;;;7390631;19;20023;-73
2022/09/05 13:30:59;;;;;;;2.03;1.30;;;;;;;;;;7392596;19;20337;-73
2022/09/05 13:33:51;;;;;;;1.65;1.13;;;;;;;;;;7393084;19;20040;-73
2022/09/05 13:36:23;;;;;;;2.20;1.20;;;;;;;;;;7389089;19;20003;-74
2022/09/05 13:39:08;;;;;;;1.25;1.15;;;;;;;;;;7392602;19;20011;-74
2022/09/05 13:41:42;;;;;;;1.52;1.05;;;;;;;;;;7393922;19;20030;-73
2022/09/05 13:44:13;;;;;;;1.27;1.10;;;;;;;;;;7390509;19;20006;-75
2022/09/05 13:46:53;;;;;;;1.38;1.27;;;;;;;;;;7391215;19;20001;-74
2022/09/05 13:49:29;;;;;;;1.13;0.90;;;;;;;;;;7389110;19;19999;-71
2022/09/05 13:52:20;;;;;;;1.10;1.00;;;;;;;;;;7389778;19;20344;-71
2022/09/05 13:54:51;;;;;;;1.92;1.20;;;;;;;;;;7391173;19;19994;-71
2022/09/05 13:57:25;;;;;;;1.13;1.02;;;;;;;;;;7390845;19;20494;-72
2022/09/05 14:00:19;;;;;;;1.30;0.80;;;;;;;;;;7388033;19;20002;-70
2022/09/05 14:03:07;;;;;;;1.58;1.00;;;;;;;;;;7391003;19;19998;-71
2022/09/05 14:05:57;;;;;;;1.48;1.30;;;;;;;;;;7392381;19;20480;-71
2022/09/05 14:08:25;;;;;;;;;;;;;;;;;;7390727;19;20014;-71
2022/09/05 14:10:50;;;;;;;1.33;1.10;;;;;;;;;;7391485;19;19943;-71
2022/09/05 14:13:29;;;;;;;1.00;1.00;;;;;;;;;;7390346;19;19991;-71
2022/09/05 14:15:59;;;;;;;2.70;1.10;;;;;;;;;;7387695;19;20771;-71
2022/09/05 14:21:14;;;;;;;1.50;1.13;;;;;;;;;;7390095;19;20022;-71
2022/09/05 14:21:25;;;;;;;2.00;1.25;;;;;;;;;;7391612;19;20019;-71
2022/09/05 14:24:11;;;;;;;1.23;1.00;;;;;;;;;;7387249;19;20337;-72
2022/09/05 14:26:49;;;;;;;1.52;1.20;;;;;;;;;;7388473;19;19998;-71
2022/09/05 14:29:19;;;;;;;1.63;1.17;;;;;;;;;;7391654;19;20476;-71
2022/09/05 14:31:49;;;;;;;1.35;1.25;;;;;;;;;;7389373;19;19995;-71
2022/09/05 14:34:24;;;;;;;1.00;0.88;;;;;;;;;;7389533;19;19994;-71
2022/09/05 14:37:16;;;;;;;1.23;1.10;;;;;;;;;;7391075;19;20018;-71
2022/09/05 14:39:51;;;;;;;1.95;1.30;;;;;;;;;;7385864;19;20326;-71
2022/09/05 14:42:37;;;;;;;1.92;1.40;;;;;;;;;;7389627;19;20006;-71
2022/09/05 14:45:12;;;;;;;1.77;1.00;;;;;;;;;;7388022;19;20341;-70
2022/09/05 14:47:55;;;;;;;1.67;1.10;;;;;;;;;;7398981;19;20106;-70
2022/09/05 14:50:41;;;;;;;1.33;1.20;;;;;;;;;;7397193;19;19999;-71
2022/09/05 14:53:09;;;;;;;3.20;1.10;;;;;;;;;;7399395;19;20021;-71
2022/09/05 14:55:35;;;;;;;1.65;1.25;;;;;;;;;;7398853;19;19995;-71
2022/09/05 14:58:00;;;;;;;1.63;1.17;;;;;;;;;;7398760;19;19994;-71
2022/09/05 15:00:28;;;;;;;1.33;1.10;;;;;;;;;;7397444;19;20002;-71
2022/09/05 15:02:56;;;;;;;1.80;1.17;;;;;;;;;;7395336;19;20005;-71
2022/09/05 15:05:27;;;;;;;1.08;1.02;;;;;;;;;;7394562;19;20006;-71
2022/09/05 15:08:06;;;;;;;1.95;1.20;;;;;;;;;;7398412;19;20019;-71
2022/09/05 15:10:45;;;;;;;1.65;1.40;;;;;;;;;;7391959;19;20016;-71
2022/09/05 15:13:10;;;;;;;1.45;1.20;;;;;;;;;;7390120;19;19998;-71
2022/09/05 15:15:44;;;;;;;1.25;1.00;;;;;;;;;;7393018;19;20002;-73
2022/09/05 15:18:16;;;;;;;1.52;1.10;;;;;;;;;;7393953;19;19998;-70
2022/09/05 15:20:43;;;;;;;2.28;1.17;;;;;;;;;;7392105;19;20003;-70
2022/09/05 15:23:31;;;;;;;4.38;1.15;;;;;;;;;;7393651;19;20468;-70
2022/09/05 15:25:56;;;;;;;1.13;1.10;;;;;;;;;;7392380;19;20093;-72
2022/09/05 15:28:38;;;;;;;1.65;1.05;;;;;;;;;;7391970;19;19998;-72
2022/09/05 15:31:09;;;;;;;2.45;1.27;;;;;;;;;;7396283;19;20002;-72
2022/09/05 15:33:35;;;;;;;0.88;0.88;;;;;;;;;;7391017;19;20433;-70
2022/09/05 15:36:03;;;;;;;1.30;1.20;;;;;;;;;;7387489;19;20467;-71
2022/09/05 15:38:32;;;;;;;1.02;1.00;;;;;;;;;;7389651;19;20018;-74
2022/09/05 15:41:06;;;;;;;1.88;1.30;;;;;;;;;;7387921;19;20003;-72
2022/09/05 15:43:58;;;;;;;1.33;1.17;;;;;;;;;;7388999;19;20348;-72
2022/09/05 15:46:30;;;;;;;0.98;0.90;;;;;;;;;;7389767;19;20006;-72
2022/09/05 15:48:57;;;;;;;1.65;1.33;;;;;;;;;;7386491;19;20007;-71
2022/09/05 15:51:47;;;;;;;1.17;1.08;;;;;;;;;;7391185;19;20468;-71
2022/09/05 15:54:19;;;;;;;;;;;;;;;;;;7390227;19;20463;-71
2022/09/05 15:56:47;;;;;;;1.90;1.20;;;;;;;;;;7388777;19;19943;-71
2022/09/05 15:59:13;;;;;;;1.95;1.40;;;;;;;;;;7390332;19;20010;-71
2022/09/05 16:01:39;;;;;;;1.30;1.20;;;;;;;;;;7387254;19;20006;-73
2022/09/05 16:04:10;;;;;;;1.55;1.27;;;;;;;;;;7389693;19;20002;-71